sensor_id;sensor_type;location;lat;lon;timestamp;P1;durP1;ratioP1;P2;durP2;ratioP2
1136;SDS011;557;48.466;7.950;2022-11-15T00:01:26;3.20;;;1.97;;
1136;SDS011;557;48.466;7.950;2022-11-15T00:04:12;3.43;;;2.40;;
1136;SDS011;557;48.466;7.950;2022-11-15T00:06:58;4.23;;;2.40;;
1136;SDS011;557;48.466;7.950;2022-11-15T00:09:44;3.30;;;2.10;;
1136;SDS011;557;48.466;7.950;2022-11-15T00:12:29;3.47;;;2.33;;
1136;SDS011;557;48.466;7.950;2022-11-15T00:15:14;3.23;;;2.30;;
1136;SDS011;557;48.466;7.950;2022-11-15T00:18:00;3.60;;;2.50;;
1136;SDS011;557;48.466;7.950;2022-11-15T00:20:47;3.70;;;2.70;;
1136;SDS011;557;48.466;7.950;2022-11-15T00:23:33;4.53;;;2.80;;
1136;SDS011;557;48.466;7.950;2022-11-15T00:26:19;3.13;;;2.50;;
1136;SDS011;557;48.466;7.950;2022-11-15T00:29:05;3.67;;;2.17;;
1136;SDS011;557;48.466;7.950;2022-11-15T00:31:50;4.03;;;2.50;;
1136;SDS011;557;48.466;7.950;2022-11-15T00:34:36;3.10;;;2.30;;
1136;SDS011;557;48.466;7.950;2022-11-15T00:37:24;4.63;;;2.80;;
1136;SDS011;557;48.466;7.950;2022-11-15T00:40:11;3.67;;;2.40;;
1136;SDS011;557;48.466;7.950;2022-11-15T00:42:57;3.20;;;2.40;;
1136;SDS011;557;48.466;7.950;2022-11-15T00:45:43;5.53;;;2.53;;
1136;SDS011;557;48.466;7.950;2022-11-15T00:48:28;5.10;;;2.77;;
1136;SDS011;557;48.466;7.950;2022-11-15T00:51:15;3.17;;;2.07;;
1136;SDS011;557;48.466;7.950;2022-11-15T00:54:02;7.80;;;2.70;;
1136;SDS011;557;48.466;7.950;2022-11-15T00:56:47;3.83;;;2.63;;
1136;SDS011;557;48.466;7.950;2022-11-15T00:59:33;3.50;;;2.60;;
1136;SDS011;557;48.466;7.950;2022-11-15T01:02:18;4.10;;;2.57;;
1136;SDS011;557;48.466;7.950;2022-11-15T01:05:04;2.57;;;1.90;;
1136;SDS011;557;48.466;7.950;2022-11-15T01:07:51;3.00;;;2.03;;
1136;SDS011;557;48.466;7.950;2022-11-15T01:10:38;3.77;;;2.20;;
1136;SDS011;557;48.466;7.950;2022-11-15T01:13:23;4.00;;;2.33;;
1136;SDS011;557;48.466;7.950;2022-11-15T01:16:09;4.90;;;2.90;;
1136;SDS011;557;48.466;7.950;2022-11-15T01:18:56;3.57;;;2.87;;
1136;SDS011;557;48.466;7.950;2022-11-15T01:21:42;3.73;;;2.60;;
1136;SDS011;557;48.466;7.950;2022-11-15T01:24:28;3.17;;;2.17;;
1136;SDS011;557;48.466;7.950;2022-11-15T01:27:14;3.30;;;2.60;;
1136;SDS011;557;48.466;7.950;2022-11-15T01:30:00;3.90;;;2.40;;
1136;SDS011;557;48.466;7.950;2022-11-15T01:32:46;3.67;;;2.50;;
1136;SDS011;557;48.466;7.950;2022-11-15T01:35:31;3.50;;;2.50;;
1136;SDS011;557;48.466;7.950;2022-11-15T01:38:17;3.83;;;2.60;;
1136;SDS011;557;48.466;7.950;2022-11-15T01:41:02;4.73;;;3.17;;
1136;SDS011;557;48.466;7.950;2022-11-15T01:43:51;4.80;;;2.43;;
1136;SDS011;557;48.466;7.950;2022-11-15T01:46:38;5.77;;;2.57;;
1136;SDS011;557;48.466;7.950;2022-11-15T01:49:24;4.43;;;2.27;;
1136;SDS011;557;48.466;7.950;2022-11-15T01:52:13;4.30;;;2.83;;
1136;SDS011;557;48.466;7.950;2022-11-15T01:55:05;3.83;;;2.37;;
1136;SDS011;557;48.466;7.950;2022-11-15T01:57:57;5.17;;;2.70;;
1136;SDS011;557;48.466;7.950;2022-11-15T02:00:47;7.03;;;2.53;;
1136;SDS011;557;48.466;7.950;2022-11-15T02:03:36;4.37;;;2.20;;
1136;SDS011;557;48.466;7.950;2022-11-15T02:06:27;3.50;;;2.53;;
1136;SDS011;557;48.466;7.950;2022-11-15T02:09:12;3.07;;;2.17;;
1136;SDS011;557;48.466;7.950;2022-11-15T02:11:58;5.10;;;2.87;;
1136;SDS011;557;48.466;7.950;2022-11-15T02:14:46;9.10;;;3.43;;
1136;SDS011;557;48.466;7.950;2022-11-15T02:17:41;3.27;;;2.43;;
1136;SDS011;557;48.466;7.950;2022-11-15T02:20:40;5.33;;;2.43;;
1136;SDS011;557;48.466;7.950;2022-11-15T02:23:44;3.80;;;2.60;;
1136;SDS011;557;48.466;7.950;2022-11-15T02:27:04;4.67;;;2.80;;
1136;SDS011;557;48.466;7.950;2022-11-15T02:30:25;3.97;;;2.93;;
1136;SDS011;557;48.466;7.950;2022-11-15T02:33:25;4.90;;;2.83;;
1136;SDS011;557;48.466;7.950;2022-11-15T02:36:19;2.97;;;2.10;;
1136;SDS011;557;48.466;7.950;2022-11-15T02:39:18;3.10;;;1.93;;
1136;SDS011;557;48.466;7.950;2022-11-15T02:42:11;3.00;;;2.13;;
1136;SDS011;557;48.466;7.950;2022-11-15T02:45:16;4.73;;;3.00;;
1136;SDS011;557;48.466;7.950;2022-11-15T02:48:06;3.97;;;1.90;;
1136;SDS011;557;48.466;7.950;2022-11-15T02:50:53;3.10;;;2.30;;
1136;SDS011;557;48.466;7.950;2022-11-15T02:53:39;5.77;;;2.60;;
1136;SDS011;557;48.466;7.950;2022-11-15T02:56:25;3.03;;;1.90;;
1136;SDS011;557;48.466;7.950;2022-11-15T02:59:13;4.43;;;2.50;;
1136;SDS011;557;48.466;7.950;2022-11-15T03:02:15;5.00;;;1.90;;
1136;SDS011;557;48.466;7.950;2022-11-15T03:05:13;4.67;;;2.27;;
1136;SDS011;557;48.466;7.950;2022-11-15T03:08:05;4.07;;;2.27;;
1136;SDS011;557;48.466;7.950;2022-11-15T03:10:56;3.70;;;2.37;;
1136;SDS011;557;48.466;7.950;2022-11-15T03:13:53;3.30;;;2.40;;
1136;SDS011;557;48.466;7.950;2022-11-15T03:16:43;2.60;;;1.80;;
1136;SDS011;557;48.466;7.950;2022-11-15T03:19:33;3.10;;;2.10;;
1136;SDS011;557;48.466;7.950;2022-11-15T03:22:27;4.40;;;2.33;;
1136;SDS011;557;48.466;7.950;2022-11-15T03:25:19;3.50;;;2.07;;
1136;SDS011;557;48.466;7.950;2022-11-15T03:28:09;3.90;;;2.37;;
1136;SDS011;557;48.466;7.950;2022-11-15T03:30:57;4.07;;;2.50;;
1136;SDS011;557;48.466;7.950;2022-11-15T03:34:06;3.47;;;2.40;;
1136;SDS011;557;48.466;7.950;2022-11-15T03:36:56;2.87;;;2.40;;
1136;SDS011;557;48.466;7.950;2022-11-15T03:39:43;3.37;;;2.47;;
1136;SDS011;557;48.466;7.950;2022-11-15T03:42:30;3.43;;;2.30;;
1136;SDS011;557;48.466;7.950;2022-11-15T03:45:25;3.30;;;2.40;;
1136;SDS011;557;48.466;7.950;2022-11-15T03:48:15;4.10;;;2.17;;
1136;SDS011;557;48.466;7.950;2022-11-15T03:51:05;3.23;;;2.30;;
1136;SDS011;557;48.466;7.950;2022-11-15T03:53:51;5.20;;;2.83;;
1136;SDS011;557;48.466;7.950;2022-11-15T03:56:38;4.10;;;2.77;;
1136;SDS011;557;48.466;7.950;2022-11-15T03:59:23;3.30;;;2.13;;
1136;SDS011;557;48.466;7.950;2022-11-15T04:02:09;2.90;;;2.17;;
1136;SDS011;557;48.466;7.950;2022-11-15T04:04:55;2.53;;;1.83;;
1136;SDS011;557;48.466;7.950;2022-11-15T04:07:40;2.70;;;2.07;;
1136;SDS011;557;48.466;7.950;2022-11-15T04:10:26;3.47;;;2.30;;
1136;SDS011;557;48.466;7.950;2022-11-15T04:13:12;3.00;;;2.10;;
1136;SDS011;557;48.466;7.950;2022-11-15T04:15:58;2.80;;;1.87;;
1136;SDS011;557;48.466;7.950;2022-11-15T04:18:44;3.63;;;2.47;;
1136;SDS011;557;48.466;7.950;2022-11-15T04:21:49;3.87;;;1.63;;
1136;SDS011;557;48.466;7.950;2022-11-15T04:24:53;3.50;;;2.20;;
1136;SDS011;557;48.466;7.950;2022-11-15T04:27:38;4.40;;;2.00;;
1136;SDS011;557;48.466;7.950;2022-11-15T04:30:25;3.13;;;1.70;;
1136;SDS011;557;48.466;7.950;2022-11-15T04:33:11;4.90;;;2.00;;
1136;SDS011;557;48.466;7.950;2022-11-15T04:35:56;3.30;;;1.90;;
1136;SDS011;557;48.466;7.950;2022-11-15T04:38:59;2.83;;;1.67;;
1136;SDS011;557;48.466;7.950;2022-11-15T04:41:45;4.83;;;1.77;;
1136;SDS011;557;48.466;7.950;2022-11-15T04:44:30;2.80;;;1.60;;
1136;SDS011;557;48.466;7.950;2022-11-15T04:47:17;2.70;;;1.90;;
1136;SDS011;557;48.466;7.950;2022-11-15T04:50:04;2.37;;;1.70;;
1136;SDS011;557;48.466;7.950;2022-11-15T04:52:51;3.70;;;1.73;;
1136;SDS011;557;48.466;7.950;2022-11-15T04:55:37;3.30;;;1.80;;
1136;SDS011;557;48.466;7.950;2022-11-15T04:58:22;4.00;;;1.70;;
1136;SDS011;557;48.466;7.950;2022-11-15T05:01:08;4.23;;;2.00;;
1136;SDS011;557;48.466;7.950;2022-11-15T05:03:55;2.27;;;1.80;;
1136;SDS011;557;48.466;7.950;2022-11-15T05:06:59;2.37;;;1.60;;
1136;SDS011;557;48.466;7.950;2022-11-15T05:09:46;3.63;;;2.67;;
1136;SDS011;557;48.466;7.950;2022-11-15T05:12:31;3.93;;;2.30;;
1136;SDS011;557;48.466;7.950;2022-11-15T05:15:16;2.80;;;1.83;;
1136;SDS011;557;48.466;7.950;2022-11-15T05:18:02;2.87;;;1.80;;
1136;SDS011;557;48.466;7.950;2022-11-15T05:20:49;2.23;;;1.67;;
1136;SDS011;557;48.466;7.950;2022-11-15T05:23:35;2.57;;;1.80;;
1136;SDS011;557;48.466;7.950;2022-11-15T05:26:20;3.40;;;1.90;;
1136;SDS011;557;48.466;7.950;2022-11-15T05:29:08;2.80;;;1.67;;
1136;SDS011;557;48.466;7.950;2022-11-15T05:31:54;3.00;;;1.90;;
1136;SDS011;557;48.466;7.950;2022-11-15T05:34:40;3.30;;;1.90;;
1136;SDS011;557;48.466;7.950;2022-11-15T05:37:27;4.00;;;2.27;;
1136;SDS011;557;48.466;7.950;2022-11-15T05:40:14;3.30;;;2.27;;
1136;SDS011;557;48.466;7.950;2022-11-15T05:43:00;2.63;;;1.70;;
1136;SDS011;557;48.466;7.950;2022-11-15T05:45:48;3.10;;;2.00;;
1136;SDS011;557;48.466;7.950;2022-11-15T05:48:34;4.43;;;2.03;;
1136;SDS011;557;48.466;7.950;2022-11-15T05:51:22;3.13;;;2.23;;
1136;SDS011;557;48.466;7.950;2022-11-15T05:54:09;3.67;;;2.07;;
1136;SDS011;557;48.466;7.950;2022-11-15T05:56:55;4.07;;;2.00;;
1136;SDS011;557;48.466;7.950;2022-11-15T05:59:41;2.93;;;2.10;;
1136;SDS011;557;48.466;7.950;2022-11-15T06:02:27;3.57;;;2.30;;
1136;SDS011;557;48.466;7.950;2022-11-15T06:05:13;3.43;;;2.10;;
1136;SDS011;557;48.466;7.950;2022-11-15T06:07:59;3.23;;;2.07;;
1136;SDS011;557;48.466;7.950;2022-11-15T06:10:46;4.27;;;2.23;;
1136;SDS011;557;48.466;7.950;2022-11-15T06:13:32;2.53;;;1.90;;
1136;SDS011;557;48.466;7.950;2022-11-15T06:16:17;3.30;;;1.80;;
1136;SDS011;557;48.466;7.950;2022-11-15T06:19:03;3.90;;;2.20;;
1136;SDS011;557;48.466;7.950;2022-11-15T06:21:50;3.83;;;2.27;;
1136;SDS011;557;48.466;7.950;2022-11-15T06:24:36;2.80;;;1.97;;
1136;SDS011;557;48.466;7.950;2022-11-15T06:27:23;4.07;;;2.00;;
1136;SDS011;557;48.466;7.950;2022-11-15T06:30:09;3.50;;;2.07;;
1136;SDS011;557;48.466;7.950;2022-11-15T06:32:58;5.50;;;2.10;;
1136;SDS011;557;48.466;7.950;2022-11-15T06:35:45;3.17;;;2.00;;
1136;SDS011;557;48.466;7.950;2022-11-15T06:38:30;2.40;;;1.60;;
1136;SDS011;557;48.466;7.950;2022-11-15T06:41:16;3.47;;;2.37;;
1136;SDS011;557;48.466;7.950;2022-11-15T06:44:04;2.90;;;2.20;;
1136;SDS011;557;48.466;7.950;2022-11-15T06:46:49;3.00;;;2.10;;
1136;SDS011;557;48.466;7.950;2022-11-15T06:49:34;7.30;;;2.47;;
1136;SDS011;557;48.466;7.950;2022-11-15T06:52:20;4.00;;;2.50;;
1136;SDS011;557;48.466;7.950;2022-11-15T06:55:07;3.27;;;2.47;;
1136;SDS011;557;48.466;7.950;2022-11-15T06:57:53;6.37;;;2.97;;
1136;SDS011;557;48.466;7.950;2022-11-15T07:00:40;4.60;;;2.60;;
1136;SDS011;557;48.466;7.950;2022-11-15T07:03:26;4.40;;;2.70;;
1136;SDS011;557;48.466;7.950;2022-11-15T07:06:12;3.20;;;2.07;;
1136;SDS011;557;48.466;7.950;2022-11-15T07:08:58;4.67;;;2.70;;
1136;SDS011;557;48.466;7.950;2022-11-15T07:11:43;4.40;;;2.53;;
1136;SDS011;557;48.466;7.950;2022-11-15T07:14:29;4.20;;;2.60;;
1136;SDS011;557;48.466;7.950;2022-11-15T07:17:15;4.83;;;2.97;;
1136;SDS011;557;48.466;7.950;2022-11-15T07:20:01;4.00;;;2.50;;
1136;SDS011;557;48.466;7.950;2022-11-15T07:22:47;4.60;;;2.23;;
1136;SDS011;557;48.466;7.950;2022-11-15T07:25:32;3.00;;;2.40;;
1136;SDS011;557;48.466;7.950;2022-11-15T07:28:18;5.00;;;2.60;;
1136;SDS011;557;48.466;7.950;2022-11-15T07:31:03;4.60;;;2.50;;
1136;SDS011;557;48.466;7.950;2022-11-15T07:33:51;5.43;;;2.67;;
1136;SDS011;557;48.466;7.950;2022-11-15T07:36:36;3.97;;;2.40;;
1136;SDS011;557;48.466;7.950;2022-11-15T07:39:21;3.40;;;2.20;;
1136;SDS011;557;48.466;7.950;2022-11-15T07:42:07;4.27;;;2.70;;
1136;SDS011;557;48.466;7.950;2022-11-15T07:45:11;4.00;;;2.20;;
1136;SDS011;557;48.466;7.950;2022-11-15T07:47:56;4.40;;;2.63;;
1136;SDS011;557;48.466;7.950;2022-11-15T07:50:43;3.47;;;2.17;;
1136;SDS011;557;48.466;7.950;2022-11-15T07:53:29;4.90;;;2.73;;
1136;SDS011;557;48.466;7.950;2022-11-15T07:56:14;4.73;;;2.60;;
1136;SDS011;557;48.466;7.950;2022-11-15T07:59:00;3.73;;;2.77;;
1136;SDS011;557;48.466;7.950;2022-11-15T08:01:45;5.27;;;3.20;;
1136;SDS011;557;48.466;7.950;2022-11-15T08:04:31;3.50;;;2.90;;
1136;SDS011;557;48.466;7.950;2022-11-15T08:07:18;3.80;;;2.80;;
1136;SDS011;557;48.466;7.950;2022-11-15T08:10:04;4.20;;;2.70;;
1136;SDS011;557;48.466;7.950;2022-11-15T08:12:56;3.53;;;2.80;;
1136;SDS011;557;48.466;7.950;2022-11-15T08:15:43;5.07;;;3.03;;
1136;SDS011;557;48.466;7.950;2022-11-15T08:18:29;4.40;;;2.80;;
1136;SDS011;557;48.466;7.950;2022-11-15T08:21:14;3.67;;;2.73;;
1136;SDS011;557;48.466;7.950;2022-11-15T08:24:05;4.10;;;2.57;;
1136;SDS011;557;48.466;7.950;2022-11-15T08:26:51;4.90;;;3.20;;
1136;SDS011;557;48.466;7.950;2022-11-15T08:29:36;3.43;;;2.47;;
1136;SDS011;557;48.466;7.950;2022-11-15T08:32:21;4.40;;;3.13;;
1136;SDS011;557;48.466;7.950;2022-11-15T08:35:08;3.90;;;2.83;;
1136;SDS011;557;48.466;7.950;2022-11-15T08:37:54;6.73;;;3.10;;
1136;SDS011;557;48.466;7.950;2022-11-15T08:40:41;3.40;;;2.40;;
1136;SDS011;557;48.466;7.950;2022-11-15T08:43:26;5.63;;;3.50;;
1136;SDS011;557;48.466;7.950;2022-11-15T08:46:12;3.93;;;2.50;;
1136;SDS011;557;48.466;7.950;2022-11-15T08:48:58;3.33;;;2.90;;
1136;SDS011;557;48.466;7.950;2022-11-15T08:51:44;4.33;;;3.27;;
1136;SDS011;557;48.466;7.950;2022-11-15T08:54:29;3.67;;;2.10;;
1136;SDS011;557;48.466;7.950;2022-11-15T08:57:16;2.90;;;2.10;;
1136;SDS011;557;48.466;7.950;2022-11-15T09:00:02;4.40;;;2.60;;
1136;SDS011;557;48.466;7.950;2022-11-15T09:02:49;4.23;;;2.90;;
1136;SDS011;557;48.466;7.950;2022-11-15T09:05:35;5.03;;;3.13;;
1136;SDS011;557;48.466;7.950;2022-11-15T09:08:21;3.97;;;2.57;;
1136;SDS011;557;48.466;7.950;2022-11-15T09:11:09;8.30;;;3.60;;
1136;SDS011;557;48.466;7.950;2022-11-15T09:13:57;6.20;;;3.30;;
1136;SDS011;557;48.466;7.950;2022-11-15T09:16:43;5.40;;;3.33;;
1136;SDS011;557;48.466;7.950;2022-11-15T09:19:29;4.67;;;3.10;;
1136;SDS011;557;48.466;7.950;2022-11-15T09:22:14;6.57;;;3.40;;
1136;SDS011;557;48.466;7.950;2022-11-15T09:25:00;4.50;;;2.97;;
1136;SDS011;557;48.466;7.950;2022-11-15T09:27:45;5.73;;;3.70;;
1136;SDS011;557;48.466;7.950;2022-11-15T09:30:32;6.10;;;3.40;;
1136;SDS011;557;48.466;7.950;2022-11-15T09:33:18;5.17;;;3.20;;
1136;SDS011;557;48.466;7.950;2022-11-15T09:36:04;5.23;;;2.70;;
1136;SDS011;557;48.466;7.950;2022-11-15T09:38:52;4.67;;;3.13;;
1136;SDS011;557;48.466;7.950;2022-11-15T09:41:40;6.40;;;4.13;;
1136;SDS011;557;48.466;7.950;2022-11-15T09:44:44;7.50;;;4.17;;
1136;SDS011;557;48.466;7.950;2022-11-15T09:47:45;9.20;;;3.70;;
1136;SDS011;557;48.466;7.950;2022-11-15T09:50:48;6.93;;;4.70;;
1136;SDS011;557;48.466;7.950;2022-11-15T09:53:47;4.80;;;3.87;;
1136;SDS011;557;48.466;7.950;2022-11-15T09:56:36;6.93;;;3.67;;
1136;SDS011;557;48.466;7.950;2022-11-15T09:59:28;5.90;;;3.87;;
1136;SDS011;557;48.466;7.950;2022-11-15T10:02:39;6.93;;;4.47;;
1136;SDS011;557;48.466;7.950;2022-11-15T10:05:38;3.60;;;2.73;;
1136;SDS011;557;48.466;7.950;2022-11-15T10:08:36;5.20;;;2.97;;
1136;SDS011;557;48.466;7.950;2022-11-15T10:11:30;5.00;;;3.03;;
1136;SDS011;557;48.466;7.950;2022-11-15T10:14:18;4.47;;;2.73;;
1136;SDS011;557;48.466;7.950;2022-11-15T10:20:28;3.80;;;2.27;;
1136;SDS011;557;48.466;7.950;2022-11-15T10:23:17;2.90;;;2.00;;
1136;SDS011;557;48.466;7.950;2022-11-15T10:26:07;3.63;;;2.40;;
1136;SDS011;557;48.466;7.950;2022-11-15T10:28:55;3.03;;;1.93;;
1136;SDS011;557;48.466;7.950;2022-11-15T10:31:41;4.97;;;2.70;;
1136;SDS011;557;48.466;7.950;2022-11-15T10:34:26;2.73;;;2.00;;
1136;SDS011;557;48.466;7.950;2022-11-15T10:37:13;2.73;;;1.90;;
1136;SDS011;557;48.466;7.950;2022-11-15T10:40:02;5.40;;;2.47;;
1136;SDS011;557;48.466;7.950;2022-11-15T10:43:03;4.37;;;2.30;;
1136;SDS011;557;48.466;7.950;2022-11-15T10:45:51;2.90;;;1.90;;
1136;SDS011;557;48.466;7.950;2022-11-15T10:48:37;4.30;;;2.10;;
1136;SDS011;557;48.466;7.950;2022-11-15T10:51:23;2.20;;;1.73;;
1136;SDS011;557;48.466;7.950;2022-11-15T10:54:13;5.90;;;2.20;;
1136;SDS011;557;48.466;7.950;2022-11-15T10:57:06;4.63;;;2.37;;
1136;SDS011;557;48.466;7.950;2022-11-15T10:59:56;4.33;;;2.30;;
1136;SDS011;557;48.466;7.950;2022-11-15T11:02:45;3.77;;;2.57;;
1136;SDS011;557;48.466;7.950;2022-11-15T11:05:42;4.10;;;2.80;;
1136;SDS011;557;48.466;7.950;2022-11-15T11:08:27;3.90;;;2.37;;
1136;SDS011;557;48.466;7.950;2022-11-15T11:11:14;3.10;;;2.43;;
1136;SDS011;557;48.466;7.950;2022-11-15T11:14:07;4.80;;;2.03;;
1136;SDS011;557;48.466;7.950;2022-11-15T11:17:00;3.00;;;2.10;;
1136;SDS011;557;48.466;7.950;2022-11-15T11:19:56;3.93;;;2.80;;
1136;SDS011;557;48.466;7.950;2022-11-15T11:22:52;4.13;;;2.53;;
1136;SDS011;557;48.466;7.950;2022-11-15T11:25:46;3.73;;;2.87;;
1136;SDS011;557;48.466;7.950;2022-11-15T11:28:43;8.70;;;2.67;;
1136;SDS011;557;48.466;7.950;2022-11-15T11:31:34;3.50;;;2.30;;
1136;SDS011;557;48.466;7.950;2022-11-15T11:34:29;3.17;;;2.30;;
1136;SDS011;557;48.466;7.950;2022-11-15T11:37:24;3.43;;;2.40;;
1136;SDS011;557;48.466;7.950;2022-11-15T11:40:20;4.80;;;2.90;;
1136;SDS011;557;48.466;7.950;2022-11-15T11:43:16;4.50;;;2.43;;
1136;SDS011;557;48.466;7.950;2022-11-15T11:46:13;4.83;;;2.50;;
1136;SDS011;557;48.466;7.950;2022-11-15T11:49:18;5.83;;;5.10;;
1136;SDS011;557;48.466;7.950;2022-11-15T11:52:10;4.40;;;2.67;;
1136;SDS011;557;48.466;7.950;2022-11-15T11:55:01;5.37;;;3.10;;
1136;SDS011;557;48.466;7.950;2022-11-15T11:57:51;9.40;;;3.87;;
1136;SDS011;557;48.466;7.950;2022-11-15T12:00:46;5.33;;;3.80;;
1136;SDS011;557;48.466;7.950;2022-11-15T12:03:38;5.80;;;3.20;;
1136;SDS011;557;48.466;7.950;2022-11-15T12:06:29;3.50;;;2.20;;
1136;SDS011;557;48.466;7.950;2022-11-15T12:09:20;2.87;;;1.90;;
1136;SDS011;557;48.466;7.950;2022-11-15T12:12:13;2.93;;;1.80;;
1136;SDS011;557;48.466;7.950;2022-11-15T12:15:04;3.20;;;1.63;;
1136;SDS011;557;48.466;7.950;2022-11-15T12:17:58;3.23;;;1.67;;
1136;SDS011;557;48.466;7.950;2022-11-15T12:20:50;3.77;;;1.70;;
1136;SDS011;557;48.466;7.950;2022-11-15T12:23:50;3.73;;;1.77;;
1136;SDS011;557;48.466;7.950;2022-11-15T12:26:39;3.67;;;2.03;;
1136;SDS011;557;48.466;7.950;2022-11-15T12:29:31;2.47;;;2.17;;
1136;SDS011;557;48.466;7.950;2022-11-15T12:32:24;2.23;;;1.70;;
1136;SDS011;557;48.466;7.950;2022-11-15T12:35:20;2.70;;;2.00;;
1136;SDS011;557;48.466;7.950;2022-11-15T12:38:11;3.20;;;1.87;;
1136;SDS011;557;48.466;7.950;2022-11-15T12:41:16;4.80;;;2.13;;
1136;SDS011;557;48.466;7.950;2022-11-15T12:44:03;4.67;;;2.30;;
1136;SDS011;557;48.466;7.950;2022-11-15T12:47:00;4.50;;;2.30;;
1136;SDS011;557;48.466;7.950;2022-11-15T12:49:48;5.30;;;2.70;;
1136;SDS011;557;48.466;7.950;2022-11-15T12:52:34;3.17;;;2.00;;
1136;SDS011;557;48.466;7.950;2022-11-15T12:55:31;3.03;;;2.13;;
1136;SDS011;557;48.466;7.950;2022-11-15T12:58:26;2.70;;;1.73;;
1136;SDS011;557;48.466;7.950;2022-11-15T13:04:34;2.83;;;2.13;;
1136;SDS011;557;48.466;7.950;2022-11-15T13:10:48;2.20;;;1.70;;
1136;SDS011;557;48.466;7.950;2022-11-15T13:13:42;3.57;;;1.90;;
1136;SDS011;557;48.466;7.950;2022-11-15T13:16:29;2.20;;;1.60;;
1136;SDS011;557;48.466;7.950;2022-11-15T13:19:15;2.60;;;2.00;;
1136;SDS011;557;48.466;7.950;2022-11-15T13:22:04;2.40;;;1.73;;
1136;SDS011;557;48.466;7.950;2022-11-15T13:25:14;2.57;;;1.67;;
1136;SDS011;557;48.466;7.950;2022-11-15T13:28:08;2.47;;;1.87;;
1136;SDS011;557;48.466;7.950;2022-11-15T13:30:56;3.57;;;2.27;;
1136;SDS011;557;48.466;7.950;2022-11-15T13:33:44;2.70;;;1.70;;
1136;SDS011;557;48.466;7.950;2022-11-15T13:36:31;2.70;;;2.00;;
1136;SDS011;557;48.466;7.950;2022-11-15T13:39:25;3.70;;;2.20;;
1136;SDS011;557;48.466;7.950;2022-11-15T13:42:13;4.20;;;2.23;;
1136;SDS011;557;48.466;7.950;2022-11-15T13:45:02;3.07;;;2.43;;
1136;SDS011;557;48.466;7.950;2022-11-15T13:47:53;5.53;;;2.80;;
1136;SDS011;557;48.466;7.950;2022-11-15T13:50:40;4.50;;;2.80;;
1136;SDS011;557;48.466;7.950;2022-11-15T13:53:26;4.47;;;3.10;;
1136;SDS011;557;48.466;7.950;2022-11-15T13:56:11;4.00;;;3.00;;
1136;SDS011;557;48.466;7.950;2022-11-15T13:58:58;4.87;;;3.80;;
1136;SDS011;557;48.466;7.950;2022-11-15T14:01:44;9.57;;;5.77;;
1136;SDS011;557;48.466;7.950;2022-11-15T14:04:30;5.00;;;3.77;;
1136;SDS011;557;48.466;7.950;2022-11-15T14:07:19;5.23;;;3.27;;
1136;SDS011;557;48.466;7.950;2022-11-15T14:10:16;3.53;;;2.57;;
1136;SDS011;557;48.466;7.950;2022-11-15T14:13:10;3.97;;;2.57;;
1136;SDS011;557;48.466;7.950;2022-11-15T14:16:13;4.67;;;3.00;;
1136;SDS011;557;48.466;7.950;2022-11-15T14:19:01;4.50;;;3.47;;
1136;SDS011;557;48.466;7.950;2022-11-15T14:28:10;3.40;;;2.70;;
1136;SDS011;557;48.466;7.950;2022-11-15T14:30:59;5.33;;;3.97;;
1136;SDS011;557;48.466;7.950;2022-11-15T14:33:45;4.67;;;3.40;;
1136;SDS011;557;48.466;7.950;2022-11-15T14:36:33;4.10;;;2.80;;
1136;SDS011;557;48.466;7.950;2022-11-15T14:39:19;3.80;;;2.73;;
1136;SDS011;557;48.466;7.950;2022-11-15T14:42:08;6.00;;;3.00;;
1136;SDS011;557;48.466;7.950;2022-11-15T14:44:54;5.23;;;3.53;;
1136;SDS011;557;48.466;7.950;2022-11-15T14:47:40;4.77;;;3.10;;
1136;SDS011;557;48.466;7.950;2022-11-15T14:50:26;4.43;;;2.93;;
1136;SDS011;557;48.466;7.950;2022-11-15T14:53:14;3.93;;;2.33;;
1136;SDS011;557;48.466;7.950;2022-11-15T14:56:01;5.80;;;3.10;;
1136;SDS011;557;48.466;7.950;2022-11-15T14:58:47;3.13;;;2.30;;
1136;SDS011;557;48.466;7.950;2022-11-15T15:01:33;4.80;;;3.13;;
1136;SDS011;557;48.466;7.950;2022-11-15T15:04:18;4.03;;;2.93;;
1136;SDS011;557;48.466;7.950;2022-11-15T15:07:05;4.93;;;3.10;;
1136;SDS011;557;48.466;7.950;2022-11-15T15:09:52;5.00;;;3.37;;
1136;SDS011;557;48.466;7.950;2022-11-15T15:12:37;9.00;;;5.37;;
1136;SDS011;557;48.466;7.950;2022-11-15T15:15:25;7.13;;;4.13;;
1136;SDS011;557;48.466;7.950;2022-11-15T15:18:14;6.13;;;3.93;;
1136;SDS011;557;48.466;7.950;2022-11-15T15:21:00;19.17;;;12.00;;
1136;SDS011;557;48.466;7.950;2022-11-15T15:23:51;6.63;;;4.43;;
1136;SDS011;557;48.466;7.950;2022-11-15T15:26:39;6.00;;;4.90;;
1136;SDS011;557;48.466;7.950;2022-11-15T15:29:26;6.40;;;3.53;;
1136;SDS011;557;48.466;7.950;2022-11-15T15:32:26;6.30;;;4.00;;
1136;SDS011;557;48.466;7.950;2022-11-15T15:35:12;7.33;;;4.63;;
1136;SDS011;557;48.466;7.950;2022-11-15T15:37:59;4.30;;;3.77;;
1136;SDS011;557;48.466;7.950;2022-11-15T15:40:45;4.00;;;2.60;;
1136;SDS011;557;48.466;7.950;2022-11-15T15:43:30;4.03;;;3.00;;
1136;SDS011;557;48.466;7.950;2022-11-15T15:46:16;5.27;;;3.00;;
1136;SDS011;557;48.466;7.950;2022-11-15T15:49:05;2.87;;;2.33;;
1136;SDS011;557;48.466;7.950;2022-11-15T15:51:53;3.87;;;2.70;;
1136;SDS011;557;48.466;7.950;2022-11-15T15:54:39;4.70;;;3.30;;
1136;SDS011;557;48.466;7.950;2022-11-15T15:57:25;8.50;;;4.40;;
1136;SDS011;557;48.466;7.950;2022-11-15T16:00:10;7.33;;;4.30;;
1136;SDS011;557;48.466;7.950;2022-11-15T16:02:56;6.03;;;4.13;;
1136;SDS011;557;48.466;7.950;2022-11-15T16:05:44;7.10;;;4.70;;
1136;SDS011;557;48.466;7.950;2022-11-15T16:08:29;5.30;;;3.80;;
1136;SDS011;557;48.466;7.950;2022-11-15T16:11:15;7.10;;;5.40;;
1136;SDS011;557;48.466;7.950;2022-11-15T16:14:00;6.30;;;4.83;;
1136;SDS011;557;48.466;7.950;2022-11-15T16:16:46;6.70;;;4.60;;
1136;SDS011;557;48.466;7.950;2022-11-15T16:19:31;10.37;;;5.70;;
1136;SDS011;557;48.466;7.950;2022-11-15T16:22:18;5.80;;;4.50;;
1136;SDS011;557;48.466;7.950;2022-11-15T16:25:03;10.00;;;4.90;;
1136;SDS011;557;48.466;7.950;2022-11-15T16:27:49;8.40;;;4.23;;
1136;SDS011;557;48.466;7.950;2022-11-15T16:30:35;5.37;;;3.13;;
1136;SDS011;557;48.466;7.950;2022-11-15T16:33:20;5.10;;;3.40;;
1136;SDS011;557;48.466;7.950;2022-11-15T16:36:12;7.57;;;3.80;;
1136;SDS011;557;48.466;7.950;2022-11-15T16:39:05;6.23;;;4.23;;
1136;SDS011;557;48.466;7.950;2022-11-15T16:41:51;6.77;;;4.87;;
1136;SDS011;557;48.466;7.950;2022-11-15T16:44:36;13.93;;;7.33;;
1136;SDS011;557;48.466;7.950;2022-11-15T16:47:22;8.63;;;6.60;;
1136;SDS011;557;48.466;7.950;2022-11-15T16:50:09;11.63;;;8.10;;
1136;SDS011;557;48.466;7.950;2022-11-15T16:53:06;19.60;;;9.80;;
1136;SDS011;557;48.466;7.950;2022-11-15T16:55:54;10.37;;;6.40;;
1136;SDS011;557;48.466;7.950;2022-11-15T16:58:40;5.77;;;4.20;;
1136;SDS011;557;48.466;7.950;2022-11-15T17:01:26;13.43;;;8.97;;
1136;SDS011;557;48.466;7.950;2022-11-15T17:04:14;14.67;;;9.30;;
1136;SDS011;557;48.466;7.950;2022-11-15T17:07:00;12.03;;;7.47;;
1136;SDS011;557;48.466;7.950;2022-11-15T17:09:46;17.00;;;9.73;;
1136;SDS011;557;48.466;7.950;2022-11-15T17:12:33;8.90;;;6.80;;
1136;SDS011;557;48.466;7.950;2022-11-15T17:15:19;9.30;;;7.67;;
1136;SDS011;557;48.466;7.950;2022-11-15T17:18:07;11.03;;;6.53;;
1136;SDS011;557;48.466;7.950;2022-11-15T17:20:55;12.73;;;9.23;;
1136;SDS011;557;48.466;7.950;2022-11-15T17:23:40;10.43;;;7.37;;
1136;SDS011;557;48.466;7.950;2022-11-15T17:26:26;6.90;;;5.63;;
1136;SDS011;557;48.466;7.950;2022-11-15T17:29:13;8.57;;;6.70;;
1136;SDS011;557;48.466;7.950;2022-11-15T17:31:59;17.17;;;10.23;;
1136;SDS011;557;48.466;7.950;2022-11-15T17:34:45;11.13;;;7.73;;
1136;SDS011;557;48.466;7.950;2022-11-15T17:37:30;7.33;;;5.60;;
1136;SDS011;557;48.466;7.950;2022-11-15T17:40:15;7.23;;;5.83;;
1136;SDS011;557;48.466;7.950;2022-11-15T17:43:01;8.80;;;5.87;;
1136;SDS011;557;48.466;7.950;2022-11-15T17:45:50;8.90;;;6.17;;
1136;SDS011;557;48.466;7.950;2022-11-15T17:48:36;11.07;;;7.97;;
1136;SDS011;557;48.466;7.950;2022-11-15T17:51:21;10.47;;;8.30;;
1136;SDS011;557;48.466;7.950;2022-11-15T17:54:08;7.90;;;5.80;;
1136;SDS011;557;48.466;7.950;2022-11-15T17:56:54;10.00;;;6.50;;
1136;SDS011;557;48.466;7.950;2022-11-15T17:59:40;6.70;;;5.40;;
1136;SDS011;557;48.466;7.950;2022-11-15T18:02:27;6.97;;;5.50;;